Time;durP1;ratioP1;P1;durP2;ratioP2;P2;SDS_P1;SDS_P2;PMS_P1;PMS_P2;Temp;Humidity;BMP_temperature;BMP_pressure;BME280_temperature;BME280_humidity;BME280_pressure;Samples;Min_cycle;Max_cycle;Signal;HPM_P1;HPM_P2
2022/04/24 00:02:12;;;;;;;0.98;0.93;;;8.90;99.90;;;;;;5034262;28;20021;-72
2022/04/24 00:04:39;;;;;;;2.17;2.05;;;8.90;99.90;;;;;;5052142;28;20480;-72
2022/04/24 00:07:09;;;;;;;14.98;6.40;;;8.90;99.90;;;;;;5051785;28;20028;-72
2022/04/24 00:09:36;;;;;;;0.35;0.35;;;8.90;99.90;;;;;;5051996;28;20021;-72
2022/04/24 00:12:01;;;;;;;6.97;4.82;;;8.90;99.90;;;;;;5052046;28;20033;-72
2022/04/24 00:14:27;;;;;;;11.73;6.47;;;8.80;99.90;;;;;;5051391;28;20028;-72
2022/04/24 00:16:53;;;;;;;33.08;5.07;;;8.90;99.90;;;;;;5034084;28;20361;-72
2022/04/24 00:19:19;;;;;;;4.28;2.92;;;8.80;99.90;;;;;;5034447;28;20017;-72
2022/04/24 00:21:46;;;;;;;12.52;10.30;;;8.80;99.90;;;;;;5051909;28;20039;-72
2022/04/24 00:24:12;;;;;;;7.43;5.53;;;8.90;99.90;;;;;;5051908;28;20029;-72
2022/04/24 00:26:38;;;;;;;9.70;3.25;;;8.90;99.90;;;;;;5051633;28;20029;-72
2022/04/24 00:29:04;;;;;;;20.42;8.60;;;8.90;99.90;;;;;;5033951;28;20116;-72
2022/04/24 00:31:30;;;;;;;1.92;1.75;;;8.90;99.90;;;;;;5033935;28;20112;-72
2022/04/24 00:33:56;;;;;;;0.00;0.00;;;8.90;99.90;;;;;;5051754;28;20029;-72
2022/04/24 00:36:22;;;;;;;0.10;0.10;;;8.90;99.90;;;;;;5051494;28;20025;-72
2022/04/24 00:38:48;;;;;;;0.80;0.80;;;9.00;99.90;;;;;;5051779;28;20465;-72
2022/04/24 00:41:14;;;;;;;2.63;2.00;;;9.10;99.90;;;;;;5017412;28;20029;-72
2022/04/24 00:43:39;;;;;;;1.73;1.15;;;9.10;99.90;;;;;;5033734;28;20033;-72
2022/04/24 00:46:36;;;;;;;0.25;0.25;;;9.10;99.90;;;;;;5033559;28;20064;-72
2022/04/24 00:49:02;;;;;;;0.10;0.10;;;9.00;99.90;;;;;;5051535;28;20359;-72
2022/04/24 00:51:29;;;;;;;0.10;0.10;;;9.10;99.90;;;;;;5051092;28;20041;-72
2022/04/24 00:53:56;;;;;;;0.10;0.10;;;9.10;99.90;;;;;;5050682;28;20164;-72
2022/04/24 00:56:30;;;;;;;3.95;2.38;;;9.20;99.90;;;;;;5050499;28;20056;-72
2022/04/24 00:58:56;;;;;;;3.88;1.23;;;9.30;99.90;;;;;;5050683;28;20526;-72
2022/04/24 01:01:21;;;;;;;0.28;0.28;;;9.50;99.90;;;;;;5050591;28;20029;-72
2022/04/24 01:03:47;;;;;;;0.35;0.35;;;9.50;99.90;;;;;;5050629;28;20047;-72
2022/04/24 01:06:14;;;;;;;0.43;0.43;;;9.60;99.90;;;;;;5050258;28;20056;-72
2022/04/24 01:08:39;;;;;;;2.92;2.72;;;9.60;99.90;;;;;;5032858;28;20032;-72
2022/04/24 01:11:05;;;;;;;0.10;0.10;;;9.70;99.90;;;;;;5032632;28;20488;-72
2022/04/24 01:13:31;;;;;;;0.70;0.63;;;9.80;99.90;;;;;;5050367;28;20036;-72
2022/04/24 01:15:57;;;;;;;0.43;0.43;;;9.80;99.90;;;;;;5050173;28;20031;-72
2022/04/24 01:18:25;;;;;;;0.13;0.13;;;9.70;99.90;;;;;;5050417;28;20024;-72
2022/04/24 01:20:51;;;;;;;0.20;0.20;;;9.70;99.90;;;;;;5050431;28;20017;-72
2022/04/24 01:23:16;;;;;;;1.27;1.23;;;9.70;99.90;;;;;;5050324;28;20105;-72
2022/04/24 01:25:42;;;;;;;0.20;0.20;;;9.80;99.90;;;;;;5050338;28;20545;-72
2022/04/24 01:28:09;;;;;;;0.17;0.17;;;9.80;99.90;;;;;;5035867;28;20025;-72
2022/04/24 01:30:35;;;;;;;0.20;0.20;;;9.80;99.90;;;;;;5053609;28;20112;-72
2022/04/24 01:33:02;;;;;;;0.32;0.32;;;9.70;99.90;;;;;;5053650;28;20377;-72
2022/04/24 01:35:27;;;;;;;0.10;0.10;;;9.80;99.90;;;;;;5053582;28;20021;-72
2022/04/24 01:37:56;;;;;;;0.20;0.20;;;9.90;99.90;;;;;;5053559;28;20516;-72
2022/04/24 01:40:22;;;;;;;0.52;0.52;;;10.00;99.90;;;;;;5053843;28;20031;-72
2022/04/24 01:42:48;;;;;;;0.10;0.10;;;9.90;99.90;;;;;;5053484;28;20021;-72
2022/04/24 01:45:14;;;;;;;0.10;0.10;;;10.00;99.90;;;;;;5053456;28;20074;-72
2022/04/24 01:47:39;;;;;;;0.10;0.10;;;10.10;99.90;;;;;;5035378;28;20029;-72
2022/04/24 01:50:05;;;;;;;0.20;0.20;;;10.20;99.90;;;;;;5018860;28;20025;-72
2022/04/24 01:52:31;;;;;;;0.10;0.10;;;10.30;99.90;;;;;;5031970;28;136870;-72
2022/04/24 01:54:57;;;;;;;0.17;0.17;;;10.30;99.90;;;;;;5054158;28;20090;-72
2022/04/24 01:57:22;;;;;;;0.20;0.20;;;10.40;99.90;;;;;;5054158;28;20021;-72
2022/04/24 01:59:48;;;;;;;0.10;0.10;;;10.40;99.90;;;;;;5054251;28;20075;-72
2022/04/24 02:02:14;;;;;;;0.20;0.20;;;10.40;99.90;;;;;;5054365;28;20487;-72
2022/04/24 02:04:40;;;;;;;0.13;0.13;;;10.40;99.90;;;;;;5054212;28;20032;-72
2022/04/24 02:07:06;;;;;;;0.20;0.20;;;10.40;99.90;;;;;;5054042;28;20025;-72
2022/04/24 02:09:33;;;;;;;0.47;0.47;;;10.40;99.90;;;;;;5036288;28;20488;-72
2022/04/24 02:12:00;;;;;;;0.10;0.10;;;10.50;99.90;;;;;;5036341;28;20121;-71
2022/04/24 02:14:26;;;;;;;0.38;0.38;;;10.60;99.90;;;;;;5019737;28;20064;-72
2022/04/24 02:16:51;;;;;;;0.55;0.55;;;11.00;99.90;;;;;;5053944;28;20094;-72
2022/04/24 02:19:17;;;;;;;0.10;0.10;;;11.10;99.90;;;;;;5019605;28;20025;-72
2022/04/24 02:21:43;;;;;;;0.30;0.30;;;11.20;99.90;;;;;;5054022;28;20108;-72
2022/04/24 02:24:08;;;;;;;0.20;0.20;;;11.40;99.90;;;;;;5036005;28;20468;-72
2022/04/24 02:26:34;;;;;;;0.20;0.20;;;11.50;99.90;;;;;;5053699;28;20034;-72
2022/04/24 02:29:00;;;;;;;0.40;0.40;;;11.70;98.20;;;;;;5053891;28;20155;-72
2022/04/24 02:31:26;;;;;;;0.20;0.20;;;11.80;96.90;;;;;;5053746;28;20079;-72
2022/04/24 02:33:51;;;;;;;20.00;0.82;;;11.90;95.40;;;;;;5053627;28;20451;-72
2022/04/24 02:36:17;;;;;;;0.20;0.20;;;12.00;94.40;;;;;;5053515;28;20024;-72
2022/04/24 02:38:43;;;;;;;0.20;0.20;;;12.10;93.70;;;;;;5052985;28;20025;-72
2022/04/24 02:41:09;;;;;;;0.20;0.20;;;12.00;93.40;;;;;;5053563;28;20143;-72
2022/04/24 02:43:34;;;;;;;0.20;0.20;;;12.00;93.00;;;;;;5035622;28;20029;-72
2022/04/24 02:46:00;;;;;;;0.20;0.20;;;12.00;93.00;;;;;;5053250;28;20439;-71
2022/04/24 02:48:27;;;;;;;0.30;0.30;;;11.90;93.00;;;;;;5053440;28;20033;-72
2022/04/24 02:50:54;;;;;;;0.20;0.20;;;11.90;92.30;;;;;;5053146;28;20378;-72
2022/04/24 02:53:20;;;;;;;0.45;0.43;;;11.90;91.90;;;;;;5053409;28;20535;-72
2022/04/24 02:55:45;;;;;;;0.20;0.20;;;11.90;91.80;;;;;;5035363;28;20025;-72
2022/04/24 02:58:11;;;;;;;0.20;0.20;;;11.90;92.00;;;;;;5053233;28;20029;-72
2022/04/24 03:00:42;;;;;;;1.23;0.30;;;11.80;91.80;;;;;;5035233;28;20051;-71
2022/04/24 03:03:09;;;;;;;0.20;0.20;;;11.90;91.10;;;;;;5053196;28;20536;-72
2022/04/24 03:05:35;;;;;;;0.10;0.10;;;11.90;90.80;;;;;;5052862;28;20032;-72
2022/04/24 03:08:02;;;;;;;0.10;0.10;;;11.90;90.70;;;;;;5053147;28;20025;-72
2022/04/24 03:10:28;;;;;;;0.25;0.25;;;11.90;90.40;;;;;;5053023;28;20472;-72
2022/04/24 03:12:54;;;;;;;0.10;0.10;;;11.90;90.20;;;;;;5053149;28;20096;-72
2022/04/24 03:15:20;;;;;;;0.20;0.20;;;11.90;90.20;;;;;;5052948;28;20151;-72
2022/04/24 03:17:46;;;;;;;0.10;0.10;;;11.90;89.00;;;;;;5052528;28;20393;-72
2022/04/24 03:20:13;;;;;;;0.20;0.20;;;12.00;88.10;;;;;;5035197;28;20032;-72
2022/04/24 03:22:40;;;;;;;0.20;0.20;;;12.00;87.80;;;;;;5052822;28;20071;-72
2022/04/24 03:25:09;;;;;;;0.30;0.30;;;12.00;87.70;;;;;;5034988;28;20439;-72
2022/04/24 03:27:35;;;;;;;0.20;0.20;;;12.00;87.20;;;;;;5052403;28;20036;-72
2022/04/24 03:30:02;;;;;;;0.30;0.30;;;12.00;87.40;;;;;;5018352;28;20059;-72
2022/04/24 03:32:33;;;;;;;0.20;0.20;;;12.00;86.70;;;;;;5052561;28;20044;-72
2022/04/24 03:35:00;;;;;;;0.10;0.10;;;12.00;86.80;;;;;;5052569;28;20100;-72
2022/04/24 03:37:25;;;;;;;0.20;0.20;;;12.10;85.70;;;;;;5052256;28;20087;-72
2022/04/24 03:39:51;;;;;;;0.15;0.15;;;12.10;84.90;;;;;;5052455;28;20017;-72
2022/04/24 03:42:17;;;;;;;0.10;0.10;;;12.10;84.90;;;;;;5052421;28;20051;-72
2022/04/24 03:44:43;;;;;;;0.20;0.20;;;12.10;84.80;;;;;;5034576;28;20025;-72
2022/04/24 03:47:09;;;;;;;0.20;0.20;;;12.10;84.40;;;;;;5052134;28;20111;-72
2022/04/24 03:49:35;;;;;;;0.68;0.68;;;12.10;85.00;;;;;;5033517;28;20534;-72
2022/04/24 03:52:00;;;;;;;0.28;0.28;;;11.60;93.20;;;;;;5034285;28;20033;-72
2022/04/24 03:54:26;;;;;;;1.88;1.65;;;11.20;96.20;;;;;;5017883;28;20025;-72
2022/04/24 03:56:52;;;;;;;0.68;0.68;;;11.00;98.10;;;;;;5034180;28;20215;-72
2022/04/24 03:59:18;;;;;;;0.20;0.20;;;10.70;99.90;;;;;;5052038;28;20478;-72
2022/04/24 04:01:43;;;;;;;0.47;0.47;;;10.50;99.90;;;;;;5052157;28;20024;-72
2022/04/24 04:04:09;;;;;;;6.32;2.65;;;10.40;99.90;;;;;;5034293;28;20024;-72
2022/04/24 04:06:35;;;;;;;0.68;0.68;;;10.30;99.90;;;;;;5033961;28;20415;-72
2022/04/24 04:09:01;;;;;;;2.78;1.33;;;10.30;99.90;;;;;;5052010;28;20036;-72
2022/04/24 04:11:28;;;;;;;8.70;4.22;;;10.20;99.90;;;;;;5034238;28;20094;-72
2022/04/24 04:13:54;;;;;;;4.00;2.28;;;10.10;99.90;;;;;;5034043;28;20017;-72
2022/04/24 04:16:19;;;;;;;3.35;3.13;;;9.90;99.90;;;;;;5051583;28;20043;-72
2022/04/24 04:18:45;;;;;;;0.20;0.20;;;9.90;99.90;;;;;;5052038;28;20024;-72
2022/04/24 04:21:11;;;;;;;0.10;0.10;;;10.00;99.90;;;;;;5051895;28;20047;-72
2022/04/24 04:23:36;;;;;;;3.10;0.75;;;10.00;99.90;;;;;;5051892;28;20035;-72
2022/04/24 04:26:03;;;;;;;0.20;0.20;;;10.00;99.90;;;;;;5033689;28;20437;-72
2022/04/24 04:28:28;;;;;;;1.38;1.27;;;10.10;99.90;;;;;;5051905;28;20025;-72
2022/04/24 04:30:54;;;;;;;0.10;0.10;;;10.20;99.90;;;;;;5051837;28;20025;-72
2022/04/24 04:33:20;;;;;;;0.20;0.20;;;10.20;99.90;;;;;;5051793;28;20064;-72
2022/04/24 04:35:46;;;;;;;0.10;0.10;;;10.20;99.90;;;;;;5051555;28;20100;-72
2022/04/24 04:38:14;;;;;;;0.20;0.20;;;10.20;99.90;;;;;;5033866;28;20036;-72
2022/04/24 04:40:39;;;;;;;0.30;0.30;;;10.20;99.90;;;;;;5051811;28;20021;-72
2022/04/24 04:43:05;;;;;;;0.20;0.20;;;10.20;99.90;;;;;;5033716;28;20025;-72
2022/04/24 04:45:31;;;;;;;0.40;0.40;;;10.10;99.90;;;;;;5051582;28;20024;-72
2022/04/24 04:47:56;;;;;;;5.93;3.33;;;10.10;99.90;;;;;;5051572;28;20025;-72
2022/04/24 04:50:22;;;;;;;1.75;0.77;;;10.00;99.90;;;;;;5051503;28;20036;-72
2022/04/24 04:52:48;;;;;;;9.02;3.70;;;9.80;99.90;;;;;;5051435;28;20400;-72
2022/04/24 04:55:13;;;;;;;3.25;2.28;;;9.70;99.90;;;;;;5123398;22;20045;-70
2022/04/24 04:57:39;;;;;;;6.32;3.40;;;9.60;99.90;;;;;;5051463;28;20087;-70
2022/04/24 05:00:07;;;;;;;2.25;1.98;;;9.40;99.90;;;;;;5034018;28;20017;-69
2022/04/24 05:02:37;;;;;;;3.50;2.08;;;9.20;99.90;;;;;;5054886;28;20025;-69
2022/04/24 05:05:07;;;;;;;0.20;0.20;;;9.20;99.90;;;;;;5055476;28;20108;-70
2022/04/24 05:07:33;;;;;;;2.70;2.53;;;9.20;99.90;;;;;;5055129;28;20430;-70
2022/04/24 05:09:59;;;;;;;1.35;1.02;;;9.30;99.90;;;;;;5055313;28;20033;-70
2022/04/24 05:12:26;;;;;;;3.78;2.17;;;9.30;99.90;;;;;;5055315;28;20031;-70
2022/04/24 05:14:53;;;;;;;1.42;1.20;;;9.30;99.90;;;;;;5055165;28;20033;-70
2022/04/24 05:17:18;;;;;;;0.47;0.47;;;9.30;99.90;;;;;;5055175;28;20488;-70
2022/04/24 05:19:44;;;;;;;12.80;2.15;;;9.40;99.90;;;;;;5055151;28;20028;-69
2022/04/24 05:22:10;;;;;;;0.17;0.17;;;9.30;99.90;;;;;;5055254;28;20025;-70
2022/04/24 05:24:35;;;;;;;1.58;1.48;;;9.30;99.90;;;;;;5055568;28;20025;-70
2022/04/24 05:27:01;;;;;;;6.50;1.65;;;9.40;99.90;;;;;;5054847;28;20075;-70
2022/04/24 05:29:27;;;;;;;0.40;0.40;;;9.40;99.90;;;;;;5055028;28;20031;-70
2022/04/24 05:31:53;;;;;;;0.65;0.65;;;9.70;99.90;;;;;;5055035;28;20025;-70
2022/04/24 05:34:19;;;;;;;0.10;0.10;;;9.80;99.90;;;;;;5054849;28;20155;-70
2022/04/24 05:36:45;;;;;;;0.10;0.10;;;10.00;99.90;;;;;;5054866;28;20377;-70
2022/04/24 05:39:11;;;;;;;0.20;0.20;;;10.20;99.90;;;;;;5054762;28;20025;-70
2022/04/24 05:41:36;;;;;;;0.88;0.88;;;10.40;99.90;;;;;;5055050;28;20056;-70
2022/04/24 05:44:02;;;;;;;2.85;1.45;;;10.60;99.90;;;;;;5054808;28;20036;-70
2022/04/24 05:46:28;;;;;;;0.10;0.10;;;10.70;99.90;;;;;;5036588;28;20025;-70
2022/04/24 05:48:55;;;;;;;0.35;0.35;;;10.80;99.90;;;;;;5054511;28;20036;-70
2022/04/24 05:51:21;;;;;;;0.32;0.32;;;10.80;99.90;;;;;;5054448;28;20393;-70
2022/04/24 05:53:46;;;;;;;0.85;0.82;;;10.60;99.90;;;;;;5040561;28;20036;-71
2022/04/24 05:56:12;;;;;;;1.25;1.05;;;10.50;99.90;;;;;;5056220;28;20029;-70
2022/04/24 05:58:38;;;;;;;1.40;1.30;;;10.40;99.90;;;;;;5054329;28;20021;-70
2022/04/24 06:01:04;;;;;;;0.20;0.20;;;10.40;99.90;;;;;;5056051;28;20029;-70
2022/04/24 06:03:29;;;;;;;5.25;2.10;;;10.50;99.90;;;;;;5054149;28;20029;-70
2022/04/24 06:05:55;;;;;;;1.67;1.58;;;10.50;99.90;;;;;;5054020;28;20431;-70
2022/04/24 06:08:21;;;;;;;0.25;0.25;;;10.40;99.90;;;;;;5056226;28;20476;-70
2022/04/24 06:10:46;;;;;;;7.22;4.68;;;10.40;99.90;;;;;;5054345;28;20032;-70
2022/04/24 06:13:12;;;;;;;5.60;2.60;;;10.30;99.90;;;;;;5052717;28;20104;-70
2022/04/24 06:15:39;;;;;;;0.15;0.15;;;10.20;99.90;;;;;;5054289;28;20048;-70
2022/04/24 06:18:05;;;;;;;0.35;0.30;;;10.20;99.90;;;;;;5053478;28;20040;-70
2022/04/24 06:20:30;;;;;;;2.25;2.08;;;10.20;99.90;;;;;;5054017;28;20074;-70
2022/04/24 06:22:59;;;;;;;3.92;1.98;;;10.30;99.90;;;;;;5035978;28;20020;-70
2022/04/24 06:25:27;;;;;;;6.28;3.85;;;10.30;99.90;;;;;;5040269;28;20020;-69
2022/04/24 06:27:53;;;;;;;5.20;3.88;;;10.40;99.90;;;;;;5059436;28;20049;-70
2022/04/24 06:30:21;;;;;;;3.10;2.17;;;10.50;99.90;;;;;;5053875;28;20060;-70
2022/04/24 06:32:47;;;;;;;3.88;2.20;;;10.50;99.90;;;;;;5053694;28;20021;-70
2022/04/24 06:35:16;;;;;;;13.38;4.95;;;10.50;99.90;;;;;;5035752;28;20063;-70
2022/04/24 06:37:53;;;;;;;3.17;2.00;;;10.60;99.90;;;;;;5052940;28;20539;-70
2022/04/24 06:40:19;;;;;;;2.78;1.95;;;10.60;99.90;;;;;;5052000;28;20112;-70
2022/04/24 06:42:53;;;;;;;3.55;2.53;;;10.70;99.90;;;;;;5053068;28;20119;-70
2022/04/24 06:45:25;;;;;;;0.10;0.10;;;10.60;99.90;;;;;;5031890;28;20028;-70
2022/04/24 06:47:55;;;;;;;2.38;2.00;;;10.80;99.90;;;;;;5073256;28;20025;-70
2022/04/24 06:50:22;;;;;;;4.15;2.35;;;11.00;99.90;;;;;;5054240;28;20037;-70
2022/04/24 06:53:05;;;;;;;0.60;0.60;;;10.90;99.90;;;;;;5053317;28;20021;-70
2022/04/24 06:55:35;;;;;;;0.10;0.10;;;11.00;99.90;;;;;;5053575;28;20032;-70
2022/04/24 06:58:02;;;;;;;6.15;3.60;;;11.10;99.90;;;;;;5065433;28;20085;-70
2022/04/24 07:00:29;;;;;;;2.97;1.42;;;11.20;99.90;;;;;;5059284;28;20372;-70
2022/04/24 07:02:55;;;;;;;0.20;0.20;;;11.20;99.90;;;;;;5053139;28;20021;-70
2022/04/24 07:05:23;;;;;;;0.30;0.30;;;11.30;99.90;;;;;;5053101;28;20052;-70
2022/04/24 07:07:49;;;;;;;5.40;2.28;;;11.60;99.90;;;;;;5034926;28;20037;-70
2022/04/24 07:10:15;;;;;;;1.20;1.02;;;11.60;99.90;;;;;;5057993;28;20021;-70
2022/04/24 07:12:54;;;;;;;2.78;2.28;;;11.60;99.90;;;;;;5069908;28;20039;-70
2022/04/24 07:15:23;;;;;;;0.68;0.68;;;11.50;99.90;;;;;;4998866;28;20022;-70
2022/04/24 07:17:50;;;;;;;0.43;0.43;;;11.70;99.90;;;;;;5015185;28;20249;-70
2022/04/24 07:20:18;;;;;;;0.90;0.85;;;11.90;99.90;;;;;;5015538;28;20381;-70
2022/04/24 07:22:48;;;;;;;0.40;0.40;;;12.10;99.90;;;;;;5033029;28;20025;-70
2022/04/24 07:25:16;;;;;;;0.65;0.52;;;12.20;99.90;;;;;;5032785;28;20032;-70
2022/04/24 07:27:43;;;;;;;0.10;0.10;;;12.20;99.90;;;;;;5029696;28;20154;-71
2022/04/24 07:30:13;;;;;;;2.38;1.05;;;12.50;99.90;;;;;;5065236;28;20043;-70
2022/04/24 07:32:51;;;;;;;0.55;0.55;;;12.20;99.90;;;;;;5038921;28;20040;-70
2022/04/24 07:35:26;;;;;;;1.55;1.08;;;12.30;99.90;;;;;;5055062;28;20579;-70
2022/04/24 07:37:52;;;;;;;0.45;0.45;;;12.30;99.90;;;;;;5072380;28;20483;-70
2022/04/24 07:40:20;;;;;;;0.20;0.20;;;12.40;99.90;;;;;;5054591;28;20380;-70
2022/04/24 07:42:51;;;;;;;0.60;0.60;;;12.70;99.90;;;;;;5072290;28;20109;-70
2022/04/24 07:45:29;;;;;;;0.65;0.65;;;12.90;99.90;;;;;;5054475;28;20028;-70
2022/04/24 07:47:57;;;;;;;0.10;0.10;;;12.90;98.20;;;;;;5072364;28;20025;-70
2022/04/24 07:50:24;;;;;;;0.22;0.20;;;13.20;97.30;;;;;;5054501;28;20028;-70
2022/04/24 07:52:51;;;;;;;0.20;0.20;;;13.10;96.60;;;;;;5072333;28;20051;-70
2022/04/24 07:55:19;;;;;;;1.35;1.35;;;12.90;97.30;;;;;;5071778;28;20117;-71
2022/04/24 07:57:49;;;;;;;0.25;0.25;;;13.10;97.10;;;;;;5072078;28;20027;-70
2022/04/24 08:00:21;;;;;;;0.30;0.30;;;13.00;97.10;;;;;;5072304;28;20024;-70
2022/04/24 08:03:00;;;;;;;0.10;0.10;;;12.80;97.90;;;;;;5072294;28;20473;-70
2022/04/24 08:05:33;;;;;;;0.20;0.20;;;13.10;97.10;;;;;;5054321;28;20484;-70
2022/04/24 08:08:02;;;;;;;0.10;0.10;;;13.10;96.60;;;;;;5072266;28;20115;-70
2022/04/24 08:10:31;;;;;;;0.10;0.10;;;13.10;96.30;;;;;;5072039;28;20472;-71
2022/04/24 08:12:57;;;;;;;0.10;0.10;;;13.10;95.10;;;;;;5072349;28;20017;-72
2022/04/24 08:15:23;;;;;;;0.10;0.10;;;13.10;95.60;;;;;;5072040;28;20514;-71
2022/04/24 08:17:50;;;;;;;0.10;0.10;;;13.20;95.30;;;;;;5072319;28;20066;-71
2022/04/24 08:20:17;;;;;;;0.10;0.10;;;13.30;94.90;;;;;;5071917;28;20032;-71
2022/04/24 08:22:51;;;;;;;0.13;0.13;;;13.40;94.20;;;;;;5071989;28;20051;-71
2022/04/24 08:25:22;;;;;;;0.40;0.40;;;13.40;94.00;;;;;;5072206;28;20016;-71
2022/04/24 08:27:49;;;;;;;0.85;0.25;;;13.50;93.40;;;;;;5054102;28;20031;-72
2022/04/24 08:30:17;;;;;;;0.10;0.10;;;13.70;93.20;;;;;;5071846;28;20028;-72
2022/04/24 08:32:44;;;;;;;1.85;0.98;;;13.80;92.60;;;;;;5071750;28;20052;-71
2022/04/24 08:35:12;;;;;;;0.10;0.10;;;13.80;92.10;;;;;;5071696;28;20067;-71
2022/04/24 08:37:38;;;;;;;0.65;0.20;;;13.70;91.70;;;;;;5075429;28;20028;-71
2022/04/24 08:40:06;;;;;;;0.15;0.15;;;13.60;91.40;;;;;;5076085;28;20134;-71
2022/04/24 08:42:33;;;;;;;0.13;0.13;;;13.60;91.80;;;;;;5058259;28;20021;-71
2022/04/24 08:44:59;;;;;;;0.10;0.10;;;13.80;91.70;;;;;;5058237;28;20112;-71
2022/04/24 08:47:26;;;;;;;0.10;0.10;;;14.00;90.80;;;;;;5058205;28;20047;-73
2022/04/24 08:49:54;;;;;;;0.13;0.13;;;13.90;90.50;;;;;;5076079;28;20517;-72
2022/04/24 08:52:21;;;;;;;0.10;0.10;;;13.90;90.60;;;;;;5057824;28;20025;-71
2022/04/24 08:54:46;;;;;;;0.10;0.10;;;14.00;90.90;;;;;;5075543;28;20033;-73
2022/04/24 08:57:40;;;;;;;0.20;0.20;;;14.10;90.20;;;;;;5057737;28;20024;-73
2022/04/24 09:00:08;;;;;;;0.15;0.15;;;13.90;89.90;;;;;;5075906;28;20039;-73
2022/04/24 09:02:35;;;;;;;1.45;0.38;;;13.70;90.20;;;;;;5075568;28;20051;-73
2022/04/24 09:05:03;;;;;;;0.10;0.10;;;13.60;89.10;;;;;;5075533;28;20060;-73
2022/04/24 09:07:33;;;;;;;1.13;0.28;;;13.80;89.60;;;;;;5075240;28;20025;-73
2022/04/24 09:10:07;;;;;;;0.10;0.10;;;14.20;86.40;;;;;;5075218;28;20028;-73
2022/04/24 09:12:33;;;;;;;0.10;0.10;;;14.70;81.90;;;;;;5075283;28;20365;-73
2022/04/24 09:15:00;;;;;;;0.20;0.20;;;15.30;77.00;;;;;;5057389;28;20024;-73
2022/04/24 09:17:32;;;;;;;0.00;0.00;;;15.00;72.60;;;;;;5075050;28;20052;-73
2022/04/24 09:20:00;;;;;;;0.28;0.28;;;14.90;73.60;;;;;;5075307;28;20017;-73
2022/04/24 09:22:26;;;;;;;0.10;0.10;;;14.90;74.20;;;;;;5057200;28;20103;-73
2022/04/24 09:24:59;;;;;;;0.10;0.10;;;15.00;72.70;;;;;;5071246;28;20024;-73
2022/04/24 09:27:36;;;;;;;0.10;0.10;;;15.00;73.70;;;;;;5057298;28;20447;-73
2022/04/24 09:30:10;;;;;;;0.47;0.47;;;15.60;71.30;;;;;;5021696;28;20148;-72
2022/04/24 09:32:47;;;;;;;0.10;0.10;;;15.80;68.80;;;;;;5037168;28;20488;-73
2022/04/24 09:35:33;;;;;;;0.05;0.05;;;16.00;69.00;;;;;;5020397;28;20071;-74
2022/04/24 09:38:14;;;;;;;0.00;0.00;;;16.10;69.50;;;;;;5020308;28;20029;-73
2022/04/24 09:40:49;;;;;;;0.10;0.10;;;16.40;68.50;;;;;;5054998;28;20435;-72
2022/04/24 09:43:17;;;;;;;0.08;0.08;;;16.10;68.60;;;;;;5036849;28;20029;-75
2022/04/24 09:45:56;;;;;;;1.15;0.30;;;16.10;70.20;;;;;;5036655;28;20032;-76
2022/04/24 09:48:23;;;;;;;0.10;0.10;;;16.00;70.20;;;;;;5053240;28;20025;-73
2022/04/24 09:50:50;;;;;;;0.10;0.10;;;15.70;71.60;;;;;;5036713;28;20036;-73
2022/04/24 09:53:19;;;;;;;0.10;0.10;;;15.30;73.50;;;;;;5054363;28;20028;-77
2022/04/24 09:55:45;;;;;;;0.10;0.10;;;15.20;74.80;;;;;;5054590;28;20036;-71
2022/04/24 09:58:14;;;;;;;0.10;0.10;;;15.10;74.20;;;;;;5036767;28;20389;-71
2022/04/24 10:00:41;;;;;;;0.20;0.20;;;15.00;74.20;;;;;;5054398;28;20021;-71
2022/04/24 10:03:19;;;;;;;0.10;0.10;;;15.00;74.10;;;;;;5054333;28;20025;-71
2022/04/24 10:05:47;;;;;;;0.20;0.20;;;14.90;73.90;;;;;;5054194;28;20029;-71
2022/04/24 10:08:17;;;;;;;0.17;0.17;;;14.40;73.30;;;;;;5054424;28;20431;-71
2022/04/24 10:10:43;;;;;;;0.15;0.15;;;14.30;74.00;;;;;;5054631;28;20100;-73
2022/04/24 10:13:13;;;;;;;0.10;0.10;;;14.30;74.60;;;;;;5054146;28;20132;-71
2022/04/24 10:15:46;;;;;;;0.10;0.10;;;14.00;75.40;;;;;;5053809;28;20452;-71
2022/04/24 10:18:24;;;;;;;1.55;0.38;;;14.00;76.00;;;;;;5036286;28;20013;-71
2022/04/24 10:21:16;;;;;;;0.10;0.10;;;13.90;79.30;;;;;;5036299;28;20104;-75
2022/04/24 10:23:42;;;;;;;0.20;0.20;;;13.80;81.10;;;;;;5054012;28;20146;-71
2022/04/24 10:26:19;;;;;;;0.20;0.20;;;13.70;80.60;;;;;;5053765;28;20151;-71
2022/04/24 10:28:46;;;;;;;0.10;0.10;;;13.70;78.50;;;;;;5053834;28;20055;-71
2022/04/24 10:31:13;;;;;;;0.13;0.13;;;13.70;77.80;;;;;;5036063;28;20025;-71
2022/04/24 10:33:51;;;;;;;0.50;0.43;;;13.60;76.60;;;;;;5053853;28;20032;-71
2022/04/24 10:36:18;;;;;;;0.10;0.10;;;13.40;75.30;;;;;;5053452;28;20028;-71
2022/04/24 10:38:50;;;;;;;0.10;0.10;;;13.60;75.80;;;;;;5035788;28;20392;-71
2022/04/24 10:41:20;;;;;;;;;;;13.50;75.90;;;;;;5054091;28;20066;-71
2022/04/24 10:43:48;;;;;;;0.10;0.10;;;13.50;76.60;;;;;;5053623;28;19904;-71
2022/04/24 10:46:15;;;;;;;0.13;0.13;;;13.50;77.20;;;;;;5053316;28;20033;-71
2022/04/24 10:48:41;;;;;;;0.10;0.10;;;13.70;77.90;;;;;;5053420;28;20021;-71
2022/04/24 10:51:07;;;;;;;0.65;0.55;;;13.70;79.10;;;;;;5053505;28;20033;-71
2022/04/24 10:53:52;;;;;;;0.20;0.20;;;13.60;77.20;;;;;;5053319;28;20151;-71
2022/04/24 10:56:19;;;;;;;7.10;0.52;;;13.30;78.00;;;;;;5095000;23;20056;-73
2022/04/24 10:58:45;;;;;;;0.10;0.10;;;13.30;82.20;;;;;;5034933;28;20387;-73
2022/04/24 11:01:14;;;;;;;0.13;0.13;;;13.20;82.90;;;;;;5053271;28;20031;-73
2022/04/24 11:03:42;;;;;;;0.20;0.20;;;13.10;85.40;;;;;;5053300;28;20309;-73
2022/04/24 11:06:19;;;;;;;0.10;0.10;;;13.00;88.00;;;;;;5052868;28;20031;-73
2022/04/24 11:08:45;;;;;;;10.50;0.82;;;13.00;89.70;;;;;;5034864;28;20400;-73
2022/04/24 11:11:15;;;;;;;0.43;0.43;;;13.00;91.30;;;;;;5035206;28;20025;-73
2022/04/24 11:13:41;;;;;;;0.10;0.10;;;13.00;91.30;;;;;;5035147;28;20029;-73
2022/04/24 11:16:08;;;;;;;0.10;0.10;;;12.80;92.20;;;;;;5052662;28;20016;-73
2022/04/24 11:18:36;;;;;;;0.10;0.10;;;12.60;92.60;;;;;;5034921;28;20036;-73
2022/04/24 11:21:04;;;;;;;0.10;0.10;;;12.50;93.20;;;;;;5018473;28;20025;-73
2022/04/24 11:23:32;;;;;;;0.10;0.10;;;12.40;94.80;;;;;;5034820;28;20021;-73
2022/04/24 11:25:59;;;;;;;0.10;0.10;;;12.00;93.90;;;;;;5034625;28;20025;-74
2022/04/24 11:28:47;;;;;;;0.30;0.30;;;11.90;94.70;;;;;;5052771;28;20391;-73
2022/04/24 11:31:18;;;;;;;0.10;0.10;;;11.70;96.90;;;;;;5052726;28;20027;-73
2022/04/24 11:33:58;;;;;;;0.37;0.37;;;11.60;96.10;;;;;;5052453;28;20021;-73
2022/04/24 11:36:30;;;;;;;0.25;0.17;;;11.20;98.60;;;;;;5034467;28;20021;-73
2022/04/24 11:38:56;;;;;;;0.10;0.10;;;11.00;99.90;;;;;;5052347;28;20021;-73
2022/04/24 11:41:22;;;;;;;0.10;0.10;;;10.90;99.90;;;;;;5018064;28;20056;-73
2022/04/24 11:43:48;;;;;;;0.10;0.10;;;10.90;99.90;;;;;;5034571;28;20053;-73
2022/04/24 11:50:13;;;;;;;0.10;0.10;;;11.00;99.90;;;;;;5060188;28;20021;-73
2022/04/24 11:51:51;;;;;;;0.10;0.10;;;11.20;99.90;;;;;;5037833;28;20051;-73
2022/04/24 11:54:17;;;;;;;0.10;0.10;;;11.10;99.90;;;;;;5052309;28;20484;-73
2022/04/24 11:56:48;;;;;;;0.10;0.10;;;11.20;99.90;;;;;;5053018;28;20086;-73
2022/04/24 11:59:22;;;;;;;0.55;0.55;;;11.50;99.90;;;;;;5053161;28;20491;-73
2022/04/24 12:01:58;;;;;;;0.20;0.20;;;11.70;99.90;;;;;;5072131;28;20027;-73
2022/04/24 12:04:33;;;;;;;0.20;0.20;;;11.70;99.90;;;;;;5064789;28;20029;-73
2022/04/24 12:07:00;;;;;;;0.10;0.10;;;11.90;99.90;;;;;;5017508;28;20032;-73
2022/04/24 12:09:27;;;;;;;1.00;1.00;;;12.10;99.90;;;;;;5066741;28;20024;-73
2022/04/24 12:12:09;;;;;;;0.20;0.20;;;11.80;99.90;;;;;;5071209;28;20029;-73
2022/04/24 12:14:35;;;;;;;;;;;11.60;99.90;;;;;;5054188;28;20025;-73
2022/04/24 12:17:06;;;;;;;0.10;0.10;;;11.50;99.90;;;;;;5071688;28;19905;-73
2022/04/24 12:19:32;;;;;;;0.10;0.10;;;11.40;99.90;;;;;;5053894;28;20031;-73
2022/04/24 12:22:05;;;;;;;0.10;0.10;;;11.30;99.90;;;;;;5067144;28;20028;-73
2022/04/24 12:24:47;;;;;;;0.10;0.10;;;11.50;99.90;;;;;;5037387;28;20514;-72
2022/04/24 12:27:16;;;;;;;0.10;0.10;;;11.70;99.90;;;;;;5013858;28;20068;-74
2022/04/24 12:29:50;;;;;;;0.10;0.10;;;11.60;99.90;;;;;;5031616;28;20481;-71
2022/04/24 12:32:21;;;;;;;0.10;0.10;;;11.40;99.90;;;;;;5021997;28;20155;-73
2022/04/24 12:34:47;;;;;;;0.10;0.10;;;11.40;99.90;;;;;;5053589;28;20385;-73
2022/04/24 12:37:29;;;;;;;0.10;0.10;;;11.80;99.90;;;;;;5059848;28;20110;-73
2022/04/24 12:39:54;;;;;;;0.10;0.10;;;12.10;99.90;;;;;;5017296;28;20032;-73
2022/04/24 12:42:20;;;;;;;0.10;0.10;;;12.30;99.90;;;;;;5051568;28;20021;-73
2022/04/24 12:44:47;;;;;;;0.10;0.10;;;12.30;99.90;;;;;;5051448;28;20051;-73
2022/04/24 12:47:13;;;;;;;0.10;0.10;;;12.50;99.90;;;;;;5050996;28;20029;-73
2022/04/24 12:49:44;;;;;;;0.10;0.10;;;12.50;99.90;;;;;;5051538;28;20067;-73
2022/04/24 12:52:10;;;;;;;0.00;0.00;;;12.30;99.90;;;;;;5033164;28;20025;-73
2022/04/24 12:54:36;;;;;;;0.10;0.10;;;12.50;99.90;;;;;;5051630;28;20025;-73
2022/04/24 12:57:07;;;;;;;0.20;0.20;;;12.60;99.90;;;;;;5033448;28;20075;-73